createdAt,value
2023-02-15T00:00:26.185Z,9.745451
2023-02-15T00:01:26.184Z,9.745389
2023-02-15T00:02:26.201Z,9.745379
2023-02-15T00:03:26.209Z,9.745498
2023-02-15T00:04:26.163Z,9.745370
2023-02-15T00:05:26.160Z,9.745395
2023-02-15T00:06:26.147Z,9.745501
2023-02-15T00:07:26.164Z,9.745508
2023-02-15T00:08:26.142Z,9.745571
2023-02-15T00:09:26.122Z,9.745358
2023-02-15T00:10:26.115Z,9.745247
2023-02-15T00:11:26.108Z,9.745253
2023-02-15T00:12:26.128Z,9.745337
2023-02-15T00:13:26.092Z,9.745395
2023-02-15T00:14:26.084Z,9.745473
2023-02-15T00:15:26.072Z,9.745441
2023-02-15T00:16:26.092Z,9.745371
2023-02-15T00:17:26.086Z,9.745337
2023-02-15T00:18:26.051Z,9.745344
2023-02-15T00:19:26.042Z,9.745439
2023-02-15T00:20:26.031Z,9.745358
2023-02-15T00:21:26.028Z,9.745248
2023-02-15T00:22:26.053Z,9.745234
2023-02-15T00:23:26.011Z,9.745446
2023-02-15T00:24:26.008Z,9.745488
2023-02-15T00:25:26.000Z,9.745319
2023-02-15T00:26:25.988Z,9.745236
2023-02-15T00:27:26.012Z,9.745323
2023-02-15T00:28:25.979Z,9.745234
2023-02-15T00:29:25.967Z,9.745307
2023-02-15T00:30:26.061Z,9.745267
2023-02-15T00:31:26.098Z,9.745378
2023-02-15T00:32:25.974Z,9.745456
2023-02-15T00:33:25.938Z,9.745482
2023-02-15T00:34:25.944Z,9.745305
2023-02-15T00:35:25.927Z,9.745489
2023-02-15T00:36:25.915Z,9.745549
2023-02-15T00:37:25.939Z,9.745790
2023-02-15T00:38:25.900Z,9.745935
2023-02-15T00:39:25.897Z,9.745083
2023-02-15T00:40:25.889Z,9.745311
2023-02-15T00:41:25.888Z,9.745613
2023-02-15T00:42:26.043Z,9.745564
2023-02-15T00:43:25.861Z,9.745490
2023-02-15T00:44:25.855Z,9.745520
2023-02-15T00:45:25.848Z,9.745500
2023-02-15T00:46:25.840Z,9.745363
2023-02-15T00:47:25.833Z,9.745330
2023-02-15T00:48:25.848Z,9.745490
2023-02-15T00:49:25.825Z,9.745502
2023-02-15T00:50:25.812Z,9.745559
2023-02-15T00:51:25.810Z,9.745663
2023-02-15T00:52:25.807Z,9.745469
2023-02-15T00:53:25.835Z,9.745548
2023-02-15T00:54:25.786Z,9.745271
2023-02-15T00:55:25.774Z,9.745026
2023-02-15T00:56:26.783Z,9.743605
2023-02-15T00:57:25.770Z,9.745589
2023-02-15T00:58:25.784Z,9.746088
2023-02-15T00:59:25.754Z,9.745193
2023-02-15T01:00:25.781Z,9.745248
2023-02-15T01:01:25.767Z,9.745867
2023-02-15T01:02:25.734Z,9.746242
2023-02-15T01:03:25.753Z,9.746637
2023-02-15T01:04:25.736Z,9.746501
2023-02-15T01:05:25.712Z,9.745972
2023-02-15T01:06:25.708Z,9.745232
2023-02-15T01:07:25.700Z,9.745582
2023-02-15T01:08:25.724Z,9.745701
2023-02-15T01:09:25.687Z,9.745373
2023-02-15T01:10:25.678Z,9.745531
2023-02-15T01:11:25.670Z,9.745400
2023-02-15T01:12:25.665Z,9.745398
2023-02-15T01:13:25.682Z,9.745477
2023-02-15T01:14:25.649Z,9.745433
2023-02-15T01:15:25.640Z,9.745770
2023-02-15T01:16:25.730Z,9.745589
2023-02-15T01:17:25.711Z,9.745574
2023-02-15T01:18:25.648Z,9.745838
2023-02-15T01:19:25.614Z,9.745528
2023-02-15T01:20:25.618Z,9.745171
2023-02-15T01:21:25.617Z,9.745518
2023-02-15T01:22:25.594Z,9.745571
2023-02-15T01:23:25.616Z,9.745581
2023-02-15T01:24:25.589Z,9.745131
2023-02-15T01:25:25.577Z,9.745336
2023-02-15T01:26:25.561Z,9.745544
2023-02-15T01:27:25.565Z,9.745627
2023-02-15T01:28:25.574Z,9.745453
2023-02-15T01:29:25.550Z,9.745422
2023-02-15T01:30:25.565Z,9.745461
2023-02-15T01:31:25.581Z,9.745470
2023-02-15T01:32:25.523Z,9.745241
2023-02-15T01:33:25.538Z,9.745475
2023-02-15T01:34:25.508Z,9.745731
2023-02-15T01:35:25.506Z,9.745823
2023-02-15T01:36:25.493Z,9.745701
2023-02-15T01:37:25.487Z,9.745178
2023-02-15T01:38:25.505Z,9.745501
2023-02-15T01:39:25.466Z,9.745308
2023-02-15T01:40:25.462Z,9.745255
2023-02-15T01:41:25.467Z,9.745563
2023-02-15T01:42:25.448Z,9.745576
2023-02-15T01:43:25.465Z,9.745320
2023-02-15T01:44:25.432Z,9.745583
2023-02-15T01:45:25.428Z,9.745538
2023-02-15T01:46:25.423Z,9.745513
2023-02-15T01:48:25.429Z,9.745633
2023-02-15T01:49:25.396Z,9.745566
2023-02-15T01:50:25.387Z,9.745441
2023-02-15T01:51:25.383Z,9.745504
2023-02-15T01:52:25.371Z,9.745585
2023-02-15T01:53:25.391Z,9.745636
2023-02-15T01:54:25.361Z,9.745456
2023-02-15T01:55:25.348Z,9.745459
2023-02-15T01:56:25.351Z,9.745487
2023-02-15T01:57:25.341Z,9.745840
2023-02-15T01:58:25.350Z,9.745461
2023-02-15T01:59:25.315Z,9.745513
2023-02-15T02:00:25.308Z,9.745288
2023-02-15T02:01:25.313Z,9.745605
2023-02-15T02:02:25.337Z,9.745082
2023-02-15T02:03:25.320Z,9.745262
2023-02-15T02:04:25.274Z,9.745547
2023-02-15T02:05:25.274Z,9.745406
2023-02-15T02:06:26.277Z,9.745609
2023-02-15T02:07:26.258Z,9.745440
2023-02-15T02:08:25.252Z,9.745437
2023-02-15T02:09:25.266Z,9.745785
2023-02-15T02:10:25.251Z,9.746120
2023-02-15T02:11:25.226Z,9.745512
2023-02-15T02:12:25.211Z,9.745163
2023-02-15T02:13:26.219Z,9.745158
2023-02-15T02:14:25.236Z,9.745087
2023-02-15T02:15:25.198Z,9.745194
2023-02-15T02:16:25.259Z,9.745568
2023-02-15T02:17:25.197Z,9.745394
2023-02-15T02:18:25.180Z,9.745329
2023-02-15T02:19:25.196Z,9.745059
2023-02-15T02:20:25.161Z,9.745044
2023-02-15T02:21:25.163Z,9.745339
2023-02-15T02:22:25.144Z,9.745426
2023-02-15T02:23:25.160Z,9.744957
2023-02-15T02:24:25.158Z,9.745367
2023-02-15T02:25:25.137Z,9.745492
2023-02-15T02:26:25.121Z,9.746003
2023-02-15T02:27:25.111Z,9.745646
2023-02-15T02:28:25.101Z,9.745489
2023-02-15T02:29:25.120Z,9.745496
2023-02-15T02:30:25.188Z,9.745324
2023-02-15T02:31:25.172Z,9.745576
2023-02-15T02:32:25.079Z,9.745594
2023-02-15T02:33:25.070Z,9.745625
2023-02-15T02:34:25.093Z,9.745399
2023-02-15T02:35:25.058Z,9.745720
2023-02-15T02:36:25.046Z,9.745736
2023-02-15T02:37:25.042Z,9.745476
2023-02-15T02:38:25.033Z,9.745845
2023-02-15T02:39:25.056Z,9.745853
2023-02-15T02:40:25.022Z,9.745857
2023-02-15T02:41:25.009Z,9.745508
2023-02-15T02:42:25.011Z,9.745141
2023-02-15T02:43:24.997Z,9.745477
2023-02-15T02:44:24.994Z,9.745461
2023-02-15T02:45:25.005Z,9.745704
2023-02-15T02:46:25.019Z,9.745258
2023-02-15T02:47:24.976Z,9.745718
2023-02-15T02:48:24.966Z,9.745536
2023-02-15T02:49:24.985Z,9.745728
2023-02-15T02:50:24.953Z,9.746249
2023-02-15T02:51:24.951Z,9.746176
2023-02-15T02:52:24.934Z,9.745600
2023-02-15T02:53:24.928Z,9.745801
2023-02-15T02:54:24.926Z,9.745928
2023-02-15T02:55:24.940Z,9.745629
2023-02-15T02:56:24.917Z,9.745756
2023-02-15T02:57:24.899Z,9.745767
2023-02-15T02:58:24.898Z,9.745772
2023-02-15T02:59:24.888Z,9.745660
2023-02-15T03:00:24.905Z,9.745700
2023-02-15T03:01:25.926Z,9.745880
2023-02-15T03:02:24.905Z,9.745737
2023-02-15T03:03:24.854Z,9.745823
2023-02-15T03:04:24.851Z,9.746114
2023-02-15T03:05:24.850Z,9.745721
2023-02-15T03:06:25.830Z,9.745614
2023-02-15T03:07:24.825Z,9.745523
2023-02-15T03:08:24.815Z,9.745320
2023-02-15T03:09:24.804Z,9.745206
2023-02-15T03:10:24.820Z,9.745299
2023-02-15T03:11:24.788Z,9.745358
2023-02-15T03:12:24.801Z,9.745410
2023-02-15T03:13:24.779Z,9.745510
2023-02-15T03:14:24.768Z,9.745828
2023-02-15T03:15:24.795Z,9.745530
2023-02-15T03:16:24.808Z,9.745436
2023-02-15T03:17:24.748Z,9.745425
2023-02-15T03:18:24.736Z,9.745686
2023-02-15T03:19:24.730Z,9.745650
2023-02-15T03:20:24.748Z,9.745961
2023-02-15T03:21:24.718Z,9.745529
2023-02-15T03:22:24.708Z,9.745448
2023-02-15T03:23:24.707Z,9.745403
2023-02-15T03:24:26.253Z,9.745212
2023-02-15T03:25:24.733Z,9.745234
2023-02-15T03:26:24.690Z,9.745545
2023-02-15T03:27:24.683Z,9.745859
2023-02-15T03:28:24.665Z,9.745583
2023-02-15T03:29:24.661Z,9.745455
2023-02-15T03:30:24.721Z,9.745357
2023-02-15T03:31:24.742Z,9.745184
2023-02-15T03:32:24.641Z,9.745250
2023-02-15T03:33:24.632Z,9.745281
2023-02-15T03:34:24.639Z,9.745521
2023-02-15T03:35:24.653Z,9.745464
2023-02-15T03:36:24.609Z,9.745598
2023-02-15T03:37:24.615Z,9.745706
2023-02-15T03:38:24.583Z,9.745582
2023-02-15T03:39:25.585Z,9.745679
2023-02-15T03:40:24.602Z,9.745769
2023-02-15T03:41:24.580Z,9.745829
2023-02-15T03:42:24.575Z,9.745886
2023-02-15T03:43:24.562Z,9.746079
2023-02-15T03:44:24.556Z,9.745971
2023-02-15T03:45:24.570Z,9.745920
2023-02-15T03:46:24.577Z,9.745684
2023-02-15T03:47:24.549Z,9.745734
2023-02-15T03:48:24.527Z,9.745741
2023-02-15T03:49:24.529Z,9.745858
2023-02-15T03:50:24.532Z,9.745671
2023-02-15T03:51:24.501Z,9.745704
2023-02-15T03:52:24.485Z,9.745853
2023-02-15T03:53:24.498Z,9.745998
2023-02-15T03:54:24.479Z,9.746168
2023-02-15T03:55:24.500Z,9.746279
2023-02-15T03:56:24.465Z,9.746385
2023-02-15T03:57:24.454Z,9.746659
2023-02-15T03:58:24.446Z,9.746811
2023-02-15T03:59:24.443Z,9.746531
2023-02-15T04:00:24.465Z,9.746332
2023-02-15T04:01:24.469Z,9.746332
2023-02-15T04:02:24.419Z,9.746332
2023-02-15T04:03:24.433Z,9.746332
2023-02-15T04:04:25.651Z,9.746332
2023-02-15T04:05:25.431Z,9.746332
2023-02-15T04:06:24.393Z,9.746524
2023-02-15T04:07:24.384Z,9.746509
2023-02-15T04:08:24.380Z,9.746397
2023-02-15T04:09:24.378Z,9.746406
2023-02-15T04:10:24.363Z,9.746279
2023-02-15T04:11:24.382Z,9.746066
2023-02-15T04:12:24.355Z,9.745961
2023-02-15T04:13:24.361Z,9.746136
2023-02-15T04:14:24.337Z,9.746145
2023-02-15T04:15:24.326Z,9.746187
2023-02-15T04:16:24.384Z,9.746000
2023-02-15T04:17:24.310Z,9.745496
2023-02-15T04:18:24.301Z,9.745873
2023-02-15T04:19:24.291Z,9.745722
2023-02-15T04:20:24.299Z,9.745618
2023-02-15T04:21:24.302Z,9.745432
2023-02-15T04:22:24.267Z,9.745270
2023-02-15T04:23:24.261Z,9.744889
2023-02-15T04:24:24.260Z,9.745123
2023-02-15T04:25:24.258Z,9.745597
2023-02-15T04:26:24.275Z,9.745622
2023-02-15T04:27:24.233Z,9.745450
2023-02-15T04:28:24.229Z,9.745508
2023-02-15T04:29:25.217Z,9.745392
2023-02-15T04:30:24.262Z,9.745481
2023-02-15T04:31:24.438Z,9.745889
2023-02-15T04:32:24.195Z,9.745662
2023-02-15T04:33:24.197Z,9.745443
2023-02-15T04:34:24.187Z,9.746192
2023-02-15T04:35:24.179Z,9.746135
2023-02-15T04:36:24.169Z,9.745389
2023-02-15T04:37:24.184Z,9.745971
2023-02-15T04:38:24.169Z,9.745779
2023-02-15T04:39:24.142Z,9.745510
2023-02-15T04:40:24.135Z,9.745288
2023-02-15T04:41:24.118Z,9.745072
2023-02-15T04:42:24.141Z,9.744746
2023-02-15T04:43:24.122Z,9.744695
2023-02-15T04:44:24.107Z,9.744695
2023-02-15T04:45:25.094Z,9.744695
2023-02-15T04:46:24.211Z,9.744695
2023-02-15T04:47:24.109Z,9.744695
2023-02-15T04:48:24.074Z,9.744695
2023-02-15T04:49:24.074Z,9.744695
2023-02-15T04:50:24.067Z,9.744695
2023-02-15T04:51:24.053Z,9.744695
2023-02-15T04:52:24.073Z,9.744470
2023-02-15T04:53:24.033Z,9.744433
2023-02-15T04:54:24.030Z,9.744433
2023-02-15T04:55:24.021Z,9.744687
2023-02-15T04:56:24.017Z,9.744774
2023-02-15T04:57:24.031Z,9.744440
2023-02-15T04:58:23.999Z,9.744691
2023-02-15T04:59:23.994Z,9.744806
2023-02-15T05:00:23.994Z,9.744806
2023-02-15T05:01:24.059Z,9.744806
2023-02-15T05:02:24.028Z,9.744806
2023-02-15T05:03:23.961Z,9.744806
2023-02-15T05:04:24.010Z,9.744806
2023-02-15T05:05:23.946Z,9.744806
2023-02-15T05:06:23.938Z,9.744806
2023-02-15T05:07:23.957Z,9.744806
2023-02-15T05:08:23.925Z,9.744806
2023-02-15T05:09:23.918Z,9.744806
2023-02-15T05:10:23.917Z,9.744806
2023-02-15T05:11:23.902Z,9.744806
2023-02-15T05:12:23.931Z,9.745572
2023-02-15T05:13:23.892Z,9.746143
2023-02-15T05:14:23.875Z,9.747228
2023-02-15T05:15:23.868Z,9.746140
2023-02-15T05:16:23.910Z,9.744008
2023-02-15T05:17:23.890Z,9.745127
2023-02-15T05:18:23.854Z,9.745156
2023-02-15T05:19:23.847Z,9.744998
2023-02-15T05:20:23.836Z,9.745822
2023-02-15T05:21:23.829Z,9.745241
2023-02-15T05:22:23.843Z,9.745182
2023-02-15T05:23:23.816Z,9.745012
2023-02-15T05:24:23.813Z,9.745302
2023-02-15T05:25:23.807Z,9.745302
2023-02-15T05:26:23.792Z,9.744924
2023-02-15T05:27:23.813Z,9.745405
2023-02-15T05:28:23.782Z,9.745360
2023-02-15T05:29:23.777Z,9.743981
2023-02-15T05:30:23.925Z,9.744532
2023-02-15T05:31:23.977Z,9.745673
2023-02-15T05:32:24.893Z,9.745698
2023-02-15T05:33:23.745Z,9.745647
2023-02-15T05:34:23.753Z,9.745514
2023-02-15T05:35:23.730Z,9.745249
2023-02-15T05:36:23.723Z,9.745316
2023-02-15T05:37:23.741Z,9.745397
2023-02-15T05:38:23.721Z,9.745744
2023-02-15T05:39:23.698Z,9.745672
2023-02-15T05:40:23.700Z,9.745884
2023-02-15T05:41:23.693Z,9.745543
2023-02-15T05:42:23.714Z,9.745752
2023-02-15T05:43:23.675Z,9.745851
2023-02-15T05:44:23.660Z,9.745311
2023-02-15T05:45:23.659Z,9.745416
2023-02-15T05:46:23.750Z,9.745933
2023-02-15T05:47:23.678Z,9.745617
2023-02-15T05:48:23.644Z,9.745736
2023-02-15T05:49:23.630Z,9.745700
2023-02-15T05:50:23.627Z,9.745730
2023-02-15T05:51:23.632Z,9.745833
2023-02-15T05:52:23.615Z,9.745563
2023-02-15T05:53:23.632Z,9.745265
2023-02-15T05:54:23.602Z,9.745630
2023-02-15T05:55:23.594Z,9.746057
2023-02-15T05:56:23.594Z,9.745359
2023-02-15T05:57:23.578Z,9.745558
2023-02-15T05:58:23.592Z,9.745153
2023-02-15T05:59:23.564Z,9.745475
2023-02-15T06:00:23.560Z,9.745447
2023-02-15T06:01:23.552Z,9.745481
2023-02-15T06:02:23.614Z,9.745515
2023-02-15T06:03:23.587Z,9.745547
2023-02-15T06:04:23.529Z,9.745544
2023-02-15T06:05:23.518Z,9.745557
2023-02-15T06:06:23.514Z,9.745540
2023-02-15T06:07:23.503Z,9.745505
2023-02-15T06:08:23.531Z,9.745402
2023-02-15T06:09:23.521Z,9.745536
2023-02-15T06:10:23.489Z,9.745418
2023-02-15T06:11:23.477Z,9.745479
2023-02-15T06:12:23.469Z,9.745556
2023-02-15T06:13:23.498Z,9.745590
2023-02-15T06:14:23.460Z,9.745457
2023-02-15T06:15:23.446Z,9.745481
2023-02-15T06:16:23.448Z,9.745397
2023-02-15T06:17:23.442Z,9.745499
2023-02-15T06:18:23.454Z,9.745439
2023-02-15T06:19:23.414Z,9.745465
2023-02-15T06:20:23.412Z,9.745597
2023-02-15T06:21:23.410Z,9.745764
2023-02-15T06:22:23.405Z,9.745502
2023-02-15T06:23:23.408Z,9.745521
2023-02-15T06:24:24.385Z,9.745532
2023-02-15T06:25:23.376Z,9.745553
2023-02-15T06:26:23.372Z,9.745509
2023-02-15T06:27:23.361Z,9.745605
2023-02-15T06:28:23.384Z,9.745528
2023-02-15T06:29:23.349Z,9.745122
2023-02-15T06:30:23.397Z,9.745512
2023-02-15T06:31:23.407Z,9.745699
2023-02-15T06:32:23.347Z,9.745792
2023-02-15T06:33:23.354Z,9.744998
2023-02-15T06:34:23.309Z,9.745889
2023-02-15T06:35:23.298Z,9.745500
2023-02-15T06:36:23.288Z,9.745513
2023-02-15T06:37:23.283Z,9.745503
2023-02-15T06:38:23.304Z,9.745511
2023-02-15T06:39:23.265Z,9.745564
2023-02-15T06:40:23.258Z,9.745893
2023-02-15T06:41:23.263Z,9.745733
2023-02-15T06:42:23.247Z,9.745543
2023-02-15T06:43:23.261Z,9.745384
2023-02-15T06:44:23.230Z,9.745363
2023-02-15T06:45:23.227Z,9.745145
2023-02-15T06:46:23.279Z,9.745359
2023-02-15T06:47:23.208Z,9.745444
2023-02-15T06:48:23.225Z,9.745383
2023-02-15T06:49:23.198Z,9.745126
2023-02-15T06:50:23.178Z,9.745407
2023-02-15T06:51:24.176Z,9.745201
2023-02-15T06:52:23.190Z,9.745676
2023-02-15T06:53:23.189Z,9.745664
2023-02-15T06:54:23.151Z,9.745526
2023-02-15T06:55:23.151Z,9.746017
2023-02-15T06:56:23.135Z,9.745588
2023-02-15T06:57:23.131Z,9.745051
2023-02-15T06:58:23.160Z,9.745121
2023-02-15T06:59:23.142Z,9.745605
2023-02-15T07:00:23.187Z,9.745713
2023-02-15T07:01:23.142Z,9.745769
2023-02-15T07:02:23.102Z,9.745552
2023-02-15T07:03:23.116Z,9.745488
2023-02-15T07:04:23.080Z,9.745563
2023-02-15T07:05:23.070Z,9.745653
2023-02-15T07:06:23.062Z,9.745645
2023-02-15T07:07:23.053Z,9.745526
2023-02-15T07:08:23.078Z,9.745910
2023-02-15T07:09:23.039Z,9.745419
2023-02-15T07:10:23.027Z,9.745395
2023-02-15T07:11:23.023Z,9.745672
2023-02-15T07:12:23.020Z,9.745404
2023-02-15T07:13:23.037Z,9.745431
2023-02-15T07:14:23.000Z,9.745517
2023-02-15T07:15:22.998Z,9.745548
2023-02-15T07:16:23.045Z,9.745506
2023-02-15T07:17:36.668Z,9.745243
2023-02-15T07:18:24.998Z,9.745350
2023-02-15T07:19:22.956Z,9.745440
2023-02-15T07:20:22.955Z,9.745506
2023-02-15T07:21:22.944Z,9.745773
2023-02-15T07:22:22.937Z,9.745508
2023-02-15T07:23:22.928Z,9.745314
2023-02-15T07:24:22.946Z,9.745412
2023-02-15T07:25:22.921Z,9.745520
2023-02-15T07:26:22.914Z,9.745411
2023-02-15T07:27:22.924Z,9.745593
2023-02-15T07:28:22.890Z,9.745570
2023-02-15T07:29:22.919Z,9.745290
2023-02-15T07:30:23.069Z,9.745789
2023-02-15T07:31:22.907Z,9.745606
2023-02-15T07:32:22.874Z,9.745592
2023-02-15T07:33:22.857Z,9.745355
2023-02-15T07:34:22.879Z,9.745470
2023-02-15T07:35:22.845Z,9.745499
2023-02-15T07:36:22.835Z,9.745426
2023-02-15T07:37:22.825Z,9.745361
2023-02-15T07:38:22.827Z,9.745389
2023-02-15T07:39:22.841Z,9.745487
2023-02-15T07:40:22.803Z,9.745733
2023-02-15T07:41:22.801Z,9.745566
2023-02-15T07:42:22.787Z,9.745691
2023-02-15T07:43:22.780Z,9.745418
2023-02-15T07:44:22.797Z,9.745430
2023-02-15T07:45:22.774Z,9.745572
2023-02-15T07:46:22.854Z,9.745546
2023-02-15T07:47:22.749Z,9.744997
2023-02-15T07:48:24.880Z,9.744912
2023-02-15T07:49:23.760Z,9.744942
2023-02-15T07:50:22.734Z,9.745728
2023-02-15T07:51:22.716Z,9.745861
2023-02-15T07:52:22.713Z,9.745530
2023-02-15T07:53:22.712Z,9.745442
2023-02-15T07:54:22.728Z,9.745369
2023-02-15T07:55:22.709Z,9.745473
2023-02-15T07:56:22.695Z,9.745395
2023-02-15T07:57:22.678Z,9.745337
2023-02-15T07:58:22.675Z,9.745395
2023-02-15T07:59:22.689Z,9.745226
2023-02-15T08:00:22.664Z,9.745387
2023-02-15T08:01:22.646Z,9.745571
2023-02-15T08:02:22.642Z,9.745661
2023-02-15T08:03:22.784Z,9.745559
2023-02-15T08:04:22.669Z,9.745644
2023-02-15T08:05:22.615Z,9.745369
2023-02-15T08:06:22.613Z,9.745588
2023-02-15T08:07:22.602Z,9.745153
2023-02-15T08:08:22.595Z,9.745350
2023-02-15T08:09:22.640Z,9.745195
2023-02-15T08:10:24.467Z,9.744861
2023-02-15T08:11:22.571Z,9.745185
2023-02-15T08:12:22.570Z,9.744862
2023-02-15T08:13:22.561Z,9.744708
2023-02-15T08:14:22.584Z,9.745116
2023-02-15T08:15:22.547Z,9.745035
2023-02-15T08:16:22.574Z,9.744981
2023-02-15T08:17:22.562Z,9.745079
2023-02-15T08:18:22.528Z,9.745347
2023-02-15T08:19:22.543Z,9.745343
2023-02-15T08:20:22.508Z,9.745343
2023-02-15T08:21:24.844Z,9.745343
2023-02-15T08:22:23.496Z,9.744412
2023-02-15T08:23:22.485Z,9.745085
2023-02-15T08:24:22.502Z,9.744864
2023-02-15T08:25:22.470Z,9.744659
2023-02-15T08:26:22.462Z,9.744269
2023-02-15T08:27:22.458Z,9.744801
2023-02-15T08:28:22.457Z,9.744801
2023-02-15T08:29:22.480Z,9.744801
2023-02-15T08:30:22.510Z,9.744801
2023-02-15T08:31:22.509Z,9.744446
2023-02-15T08:32:22.468Z,9.745176
2023-02-15T08:33:22.414Z,9.744926
2023-02-15T08:34:22.450Z,9.744970
2023-02-15T08:35:22.449Z,9.745007
2023-02-15T08:36:22.414Z,9.745007
2023-02-15T08:37:22.389Z,9.745007
2023-02-15T08:38:22.398Z,9.745007
2023-02-15T08:39:22.394Z,9.745007
2023-02-15T08:40:22.362Z,9.745007
2023-02-15T08:41:22.364Z,9.745007
2023-02-15T08:42:22.354Z,9.745007
2023-02-15T08:43:22.338Z,9.745007
2023-02-15T08:44:22.361Z,9.745007
2023-02-15T08:45:22.323Z,9.745007
2023-02-15T08:46:22.314Z,9.745525
2023-02-15T08:47:22.309Z,9.745754
2023-02-15T08:48:22.305Z,9.745600
2023-02-15T08:49:22.333Z,9.745430
2023-02-15T08:50:22.286Z,9.745360
2023-02-15T08:51:22.296Z,9.745405
2023-02-15T08:52:22.288Z,9.745309
2023-02-15T08:53:22.268Z,9.745564
2023-02-15T08:54:22.293Z,9.745576
2023-02-15T08:55:22.254Z,9.745465
2023-02-15T08:56:22.243Z,9.745194
2023-02-15T08:57:22.241Z,9.745472
2023-02-15T08:58:22.233Z,9.745655
2023-02-15T08:59:22.249Z,9.745253
2023-02-15T09:00:22.214Z,9.745281
2023-02-15T09:01:22.275Z,9.745615
2023-02-15T09:02:22.248Z,9.745456
2023-02-15T09:03:22.194Z,9.745313
2023-02-15T09:04:22.205Z,9.745275
2023-02-15T09:05:22.192Z,9.745385
2023-02-15T09:06:22.168Z,9.745428
2023-02-15T09:07:22.155Z,9.745123
2023-02-15T09:08:22.173Z,9.744922
2023-02-15T09:09:22.175Z,9.745263
2023-02-15T09:10:22.136Z,9.745376
2023-02-15T09:11:22.127Z,9.745338
2023-02-15T09:12:22.122Z,9.745199
2023-02-15T09:13:22.114Z,9.745337
2023-02-15T09:14:22.183Z,9.745389
2023-02-15T09:15:22.094Z,9.745115
2023-02-15T09:16:22.180Z,9.744931
2023-02-15T09:17:22.074Z,9.745330
2023-02-15T09:18:22.067Z,9.745471
2023-02-15T09:19:22.198Z,9.745127
2023-02-15T09:20:22.049Z,9.745299
2023-02-15T09:21:22.040Z,9.745193
2023-02-15T09:22:22.042Z,9.745133
2023-02-15T09:23:27.046Z,9.745392
2023-02-15T09:24:24.071Z,9.745492
2023-02-15T09:25:22.015Z,9.745582
2023-02-15T09:26:22.011Z,9.745738
2023-02-15T09:27:22.001Z,9.745707
2023-02-15T09:28:21.993Z,9.745486
2023-02-15T09:29:22.107Z,9.745468
2023-02-15T09:30:22.068Z,9.745458
2023-02-15T09:31:22.075Z,9.745388
2023-02-15T09:32:21.958Z,9.745410
2023-02-15T09:33:21.969Z,9.745565
2023-02-15T09:34:21.988Z,9.745508
2023-02-15T09:35:21.964Z,9.745343
2023-02-15T09:36:21.927Z,9.745573
2023-02-15T09:37:21.922Z,9.745533
2023-02-15T09:38:21.912Z,9.745567
2023-02-15T09:39:21.932Z,9.745500
2023-02-15T09:40:21.910Z,9.745418
2023-02-15T09:41:21.892Z,9.745626
2023-02-15T09:42:21.894Z,9.745581
2023-02-15T09:43:21.873Z,9.745559
2023-02-15T09:44:21.866Z,9.745501
2023-02-15T09:45:21.880Z,9.745546
2023-02-15T09:46:21.894Z,9.745453
2023-02-15T09:47:21.839Z,9.745488
2023-02-15T09:48:21.832Z,9.745519
2023-02-15T09:49:21.828Z,9.745439
2023-02-15T09:50:21.859Z,9.745482
2023-02-15T09:51:21.811Z,9.745529
2023-02-15T09:52:21.802Z,9.745495
2023-02-15T09:53:21.800Z,9.745315
2023-02-15T09:54:21.787Z,9.745457
2023-02-15T09:55:21.806Z,9.745594
2023-02-15T09:56:21.778Z,9.745542
2023-02-15T09:57:21.768Z,9.745471
2023-02-15T09:58:21.761Z,9.745510
2023-02-15T09:59:21.752Z,9.745474
2023-02-15T10:00:21.764Z,9.745596
2023-02-15T10:01:21.754Z,9.745530
2023-02-15T10:02:21.737Z,9.745517
2023-02-15T10:03:21.728Z,9.745479
2023-02-15T10:04:21.751Z,9.745531
2023-02-15T10:05:21.739Z,9.745347
2023-02-15T10:06:21.699Z,9.745466
2023-02-15T10:07:21.694Z,9.745576
2023-02-15T10:08:21.692Z,9.745702
2023-02-15T10:09:21.679Z,9.745501
2023-02-15T10:10:21.692Z,9.745423
2023-02-15T10:11:21.698Z,9.745420
2023-02-15T10:12:21.653Z,9.745222
2023-02-15T10:13:21.641Z,9.745385
2023-02-15T10:14:21.641Z,9.745473
2023-02-15T10:15:21.671Z,9.745692
2023-02-15T10:16:21.632Z,9.745608
2023-02-15T10:17:21.613Z,9.745431
2023-02-15T10:18:21.606Z,9.745652
2023-02-15T10:19:21.598Z,9.745618
2023-02-15T10:20:21.630Z,9.745447
2023-02-15T10:21:21.584Z,9.745377
2023-02-15T10:22:21.574Z,9.745436
2023-02-15T10:23:21.570Z,9.745377
2023-02-15T10:24:21.562Z,9.745601
2023-02-15T10:25:21.582Z,9.745702
2023-02-15T10:26:21.539Z,9.745469
2023-02-15T10:27:21.534Z,9.745586
2023-02-15T10:28:21.547Z,9.745701
2023-02-15T10:29:21.517Z,9.745749
2023-02-15T10:30:21.636Z,9.745602
2023-02-15T10:31:21.568Z,9.745427
2023-02-15T10:32:21.553Z,9.745287
2023-02-15T10:33:22.486Z,9.745522
2023-02-15T10:34:21.478Z,9.745374
2023-02-15T10:35:21.498Z,9.745351
2023-02-15T10:36:21.461Z,9.745404
2023-02-15T10:37:21.458Z,9.745643
2023-02-15T10:38:21.452Z,9.745687
2023-02-15T10:39:21.439Z,9.745640
2023-02-15T10:40:21.526Z,9.745579
2023-02-15T10:41:21.433Z,9.745063
2023-02-15T10:42:21.420Z,9.745015
2023-02-15T10:43:21.414Z,9.745289
2023-02-15T10:44:21.416Z,9.745609
2023-02-15T10:45:21.428Z,9.745735
2023-02-15T10:46:21.475Z,9.745389
2023-02-15T10:47:22.385Z,9.745401
2023-02-15T10:48:21.374Z,9.745520
2023-02-15T10:49:21.380Z,9.745183
2023-02-15T10:50:21.491Z,9.745724
2023-02-15T10:51:21.361Z,9.745420
2023-02-15T10:52:23.041Z,9.745396
2023-02-15T10:53:21.340Z,9.745226
2023-02-15T10:54:21.331Z,9.745402
2023-02-15T10:55:21.336Z,9.745481
2023-02-15T10:56:21.352Z,9.745524
2023-02-15T10:57:21.316Z,9.745446
2023-02-15T10:58:21.308Z,9.745646
2023-02-15T10:59:21.371Z,9.745728
2023-02-15T11:00:21.281Z,9.745662
2023-02-15T11:01:21.364Z,9.745499
2023-02-15T11:02:21.276Z,9.745500
2023-02-15T11:03:21.260Z,9.745349
2023-02-15T11:04:21.254Z,9.745412
2023-02-15T11:05:21.321Z,9.745334
2023-02-15T11:06:21.261Z,9.745270
2023-02-15T11:07:21.228Z,9.745194
2023-02-15T11:08:21.228Z,9.745296
2023-02-15T11:09:21.209Z,9.745377
2023-02-15T11:10:21.315Z,9.745512
2023-02-15T11:11:21.223Z,9.745440
2023-02-15T11:12:21.189Z,9.745477
2023-02-15T11:13:21.181Z,9.745276
2023-02-15T11:14:21.170Z,9.745169
2023-02-15T11:15:21.172Z,9.745042
2023-02-15T11:16:21.233Z,9.744934
2023-02-15T11:17:21.166Z,9.745102
2023-02-15T11:18:21.154Z,9.745397
2023-02-15T11:19:21.142Z,9.745608
2023-02-15T11:20:21.126Z,9.745653
2023-02-15T11:21:21.151Z,9.745480
2023-02-15T11:22:21.132Z,9.745365
2023-02-15T11:23:21.104Z,9.745256
2023-02-15T11:24:21.133Z,9.745302
2023-02-15T11:25:21.093Z,9.745505
2023-02-15T11:26:21.115Z,9.745554
2023-02-15T11:27:21.151Z,9.745567
2023-02-15T11:28:21.073Z,9.745737
2023-02-15T11:29:21.069Z,9.745669
2023-02-15T11:30:21.088Z,9.745563
2023-02-15T11:31:21.194Z,9.745637
2023-02-15T11:32:21.140Z,9.745750
2023-02-15T11:33:21.029Z,9.745636
2023-02-15T11:34:21.040Z,9.745681
2023-02-15T11:35:21.014Z,9.745600
2023-02-15T11:36:21.028Z,9.745557
2023-02-15T11:37:20.999Z,9.745587
2023-02-15T11:38:20.993Z,9.745564
2023-02-15T11:39:20.977Z,9.745425
2023-02-15T11:40:20.972Z,9.745568
2023-02-15T11:41:20.993Z,9.745542
2023-02-15T11:42:20.958Z,9.745509
2023-02-15T11:43:20.953Z,9.745447
2023-02-15T11:44:20.942Z,9.745618
2023-02-15T11:45:20.933Z,9.745717